sensor_id;sensor_type;location;lat;lon;timestamp;P1;durP1;ratioP1;P2;durP2;ratioP2
41966;SDS011;27656;53.068;8.818;2022-12-07T00:01:20;18.10;;;9.87;;
41966;SDS011;27656;53.068;8.818;2022-12-07T00:03:48;17.50;;;9.90;;
41966;SDS011;27656;53.068;8.818;2022-12-07T00:06:16;15.40;;;9.83;;
41966;SDS011;27656;53.068;8.818;2022-12-07T00:08:43;19.00;;;10.43;;
41966;SDS011;27656;53.068;8.818;2022-12-07T00:11:18;18.63;;;9.73;;
41966;SDS011;27656;53.068;8.818;2022-12-07T00:13:46;16.80;;;9.97;;
41966;SDS011;27656;53.068;8.818;2022-12-07T00:16:17;15.23;;;8.83;;
41966;SDS011;27656;53.068;8.818;2022-12-07T00:18:45;15.10;;;8.77;;
41966;SDS011;27656;53.068;8.818;2022-12-07T00:21:16;15.53;;;8.83;;
41966;SDS011;27656;53.068;8.818;2022-12-07T00:23:47;14.70;;;8.30;;
41966;SDS011;27656;53.068;8.818;2022-12-07T00:26:15;15.77;;;8.33;;
41966;SDS011;27656;53.068;8.818;2022-12-07T00:28:47;13.93;;;7.80;;
41966;SDS011;27656;53.068;8.818;2022-12-07T00:31:16;15.43;;;8.50;;
41966;SDS011;27656;53.068;8.818;2022-12-07T00:33:43;17.13;;;7.97;;
41966;SDS011;27656;53.068;8.818;2022-12-07T00:36:11;14.67;;;8.43;;
41966;SDS011;27656;53.068;8.818;2022-12-07T00:38:40;16.77;;;8.00;;
41966;SDS011;27656;53.068;8.818;2022-12-07T00:41:13;15.67;;;7.97;;
41966;SDS011;27656;53.068;8.818;2022-12-07T00:43:50;16.03;;;7.73;;
41966;SDS011;27656;53.068;8.818;2022-12-07T00:46:17;13.77;;;7.87;;
41966;SDS011;27656;53.068;8.818;2022-12-07T00:48:45;18.60;;;8.43;;
41966;SDS011;27656;53.068;8.818;2022-12-07T00:51:12;19.83;;;7.50;;
41966;SDS011;27656;53.068;8.818;2022-12-07T00:53:39;17.00;;;8.00;;
41966;SDS011;27656;53.068;8.818;2022-12-07T00:56:14;13.40;;;7.03;;
41966;SDS011;27656;53.068;8.818;2022-12-07T00:58:42;16.67;;;8.07;;
41966;SDS011;27656;53.068;8.818;2022-12-07T01:01:09;14.03;;;7.27;;
41966;SDS011;27656;53.068;8.818;2022-12-07T01:03:36;19.33;;;8.13;;
41966;SDS011;27656;53.068;8.818;2022-12-07T01:06:03;16.57;;;8.10;;
41966;SDS011;27656;53.068;8.818;2022-12-07T01:08:30;21.37;;;8.50;;
41966;SDS011;27656;53.068;8.818;2022-12-07T01:11:06;16.30;;;7.87;;
41966;SDS011;27656;53.068;8.818;2022-12-07T01:13:34;18.37;;;7.97;;
41966;SDS011;27656;53.068;8.818;2022-12-07T01:16:03;15.97;;;7.77;;
41966;SDS011;27656;53.068;8.818;2022-12-07T01:18:31;13.80;;;7.10;;
41966;SDS011;27656;53.068;8.818;2022-12-07T01:21:03;18.03;;;7.83;;
41966;SDS011;27656;53.068;8.818;2022-12-07T01:23:39;14.77;;;7.10;;
41966;SDS011;27656;53.068;8.818;2022-12-07T01:26:07;11.73;;;6.53;;
41966;SDS011;27656;53.068;8.818;2022-12-07T01:28:35;16.10;;;6.60;;
41966;SDS011;27656;53.068;8.818;2022-12-07T01:31:03;16.73;;;6.60;;
41966;SDS011;27656;53.068;8.818;2022-12-07T01:33:32;15.27;;;6.20;;
41966;SDS011;27656;53.068;8.818;2022-12-07T01:36:04;11.97;;;6.00;;
41966;SDS011;27656;53.068;8.818;2022-12-07T01:38:31;13.33;;;5.10;;
41966;SDS011;27656;53.068;8.818;2022-12-07T01:40:59;12.17;;;5.50;;
41966;SDS011;27656;53.068;8.818;2022-12-07T01:43:27;13.43;;;5.17;;
41966;SDS011;27656;53.068;8.818;2022-12-07T01:45:54;12.60;;;4.90;;
41966;SDS011;27656;53.068;8.818;2022-12-07T01:48:32;15.77;;;4.57;;
41966;SDS011;27656;53.068;8.818;2022-12-07T01:51:02;9.10;;;5.07;;
41966;SDS011;27656;53.068;8.818;2022-12-07T01:53:31;7.53;;;4.13;;
41966;SDS011;27656;53.068;8.818;2022-12-07T01:55:59;9.80;;;4.03;;
41966;SDS011;27656;53.068;8.818;2022-12-07T01:58:26;8.80;;;3.80;;
41966;SDS011;27656;53.068;8.818;2022-12-07T02:00:52;10.27;;;3.57;;
41966;SDS011;27656;53.068;8.818;2022-12-07T02:03:24;11.20;;;3.87;;
41966;SDS011;27656;53.068;8.818;2022-12-07T02:05:53;9.23;;;4.40;;
41966;SDS011;27656;53.068;8.818;2022-12-07T02:08:20;11.73;;;3.90;;
41966;SDS011;27656;53.068;8.818;2022-12-07T02:10:47;11.43;;;3.50;;
41966;SDS011;27656;53.068;8.818;2022-12-07T02:13:15;7.27;;;3.30;;
41966;SDS011;27656;53.068;8.818;2022-12-07T02:19:24;7.67;;;4.17;;
41966;SDS011;27656;53.068;8.818;2022-12-07T02:24:31;9.97;;;4.20;;
41966;SDS011;27656;53.068;8.818;2022-12-07T02:27:23;13.60;;;4.23;;
41966;SDS011;27656;53.068;8.818;2022-12-07T02:35:11;12.77;;;4.23;;
41966;SDS011;27656;53.068;8.818;2022-12-07T02:40:30;9.63;;;4.43;;
41966;SDS011;27656;53.068;8.818;2022-12-07T02:43:25;10.40;;;4.87;;
41966;SDS011;27656;53.068;8.818;2022-12-07T02:45:58;10.60;;;4.53;;
41966;SDS011;27656;53.068;8.818;2022-12-07T02:48:31;12.77;;;4.33;;
41966;SDS011;27656;53.068;8.818;2022-12-07T02:50:59;16.17;;;5.00;;
41966;SDS011;27656;53.068;8.818;2022-12-07T02:53:39;9.13;;;4.90;;
41966;SDS011;27656;53.068;8.818;2022-12-07T03:10:10;7.00;;;3.90;;
41966;SDS011;27656;53.068;8.818;2022-12-07T03:12:44;8.67;;;4.50;;
41966;SDS011;27656;53.068;8.818;2022-12-07T03:15:22;7.83;;;3.77;;
41966;SDS011;27656;53.068;8.818;2022-12-07T03:17:52;6.70;;;3.20;;
41966;SDS011;27656;53.068;8.818;2022-12-07T03:20:20;7.10;;;2.97;;
41966;SDS011;27656;53.068;8.818;2022-12-07T03:22:47;5.47;;;2.70;;
41966;SDS011;27656;53.068;8.818;2022-12-07T03:25:15;9.50;;;2.90;;
41966;SDS011;27656;53.068;8.818;2022-12-07T03:27:44;8.57;;;2.67;;
41966;SDS011;27656;53.068;8.818;2022-12-07T03:30:18;6.33;;;2.30;;
41966;SDS011;27656;53.068;8.818;2022-12-07T03:35:34;9.37;;;1.70;;
41966;SDS011;27656;53.068;8.818;2022-12-07T03:38:15;7.50;;;2.50;;
41966;SDS011;27656;53.068;8.818;2022-12-07T03:43:24;4.23;;;2.07;;
41966;SDS011;27656;53.068;8.818;2022-12-07T03:51:28;6.80;;;2.00;;
41966;SDS011;27656;53.068;8.818;2022-12-07T03:54:05;7.53;;;2.27;;
41966;SDS011;27656;53.068;8.818;2022-12-07T03:56:36;8.53;;;2.13;;
41966;SDS011;27656;53.068;8.818;2022-12-07T03:59:04;7.87;;;2.63;;
41966;SDS011;27656;53.068;8.818;2022-12-07T04:01:31;6.90;;;3.03;;
41966;SDS011;27656;53.068;8.818;2022-12-07T04:03:58;10.77;;;3.63;;
41966;SDS011;27656;53.068;8.818;2022-12-07T04:06:24;10.10;;;4.20;;
41966;SDS011;27656;53.068;8.818;2022-12-07T04:08:50;7.80;;;3.67;;
41966;SDS011;27656;53.068;8.818;2022-12-07T04:11:17;15.57;;;4.47;;
41966;SDS011;27656;53.068;8.818;2022-12-07T04:13:43;8.03;;;3.80;;
41966;SDS011;27656;53.068;8.818;2022-12-07T04:16:29;9.37;;;4.37;;
41966;SDS011;27656;53.068;8.818;2022-12-07T04:18:55;11.10;;;4.90;;
41966;SDS011;27656;53.068;8.818;2022-12-07T04:21:22;13.57;;;4.67;;
41966;SDS011;27656;53.068;8.818;2022-12-07T04:23:48;7.20;;;4.17;;
41966;SDS011;27656;53.068;8.818;2022-12-07T04:26:15;11.70;;;4.60;;
41966;SDS011;27656;53.068;8.818;2022-12-07T04:28:41;13.77;;;5.40;;
41966;SDS011;27656;53.068;8.818;2022-12-07T04:31:07;12.70;;;5.57;;
41966;SDS011;27656;53.068;8.818;2022-12-07T04:33:35;16.73;;;4.90;;
41966;SDS011;27656;53.068;8.818;2022-12-07T04:36:01;13.70;;;5.50;;
41966;SDS011;27656;53.068;8.818;2022-12-07T04:38:28;9.73;;;5.00;;
41966;SDS011;27656;53.068;8.818;2022-12-07T04:40:54;9.87;;;5.10;;
41966;SDS011;27656;53.068;8.818;2022-12-07T04:43:21;12.60;;;4.83;;
41966;SDS011;27656;53.068;8.818;2022-12-07T04:45:47;12.97;;;5.97;;
41966;SDS011;27656;53.068;8.818;2022-12-07T04:48:14;9.10;;;5.37;;
41966;SDS011;27656;53.068;8.818;2022-12-07T04:50:41;11.60;;;6.33;;
41966;SDS011;27656;53.068;8.818;2022-12-07T04:53:11;10.17;;;5.07;;
41966;SDS011;27656;53.068;8.818;2022-12-07T04:55:38;16.40;;;5.40;;
41966;SDS011;27656;53.068;8.818;2022-12-07T04:58:04;12.67;;;5.07;;
41966;SDS011;27656;53.068;8.818;2022-12-07T05:00:31;11.77;;;4.97;;
41966;SDS011;27656;53.068;8.818;2022-12-07T05:02:57;14.03;;;5.77;;
41966;SDS011;27656;53.068;8.818;2022-12-07T05:05:24;16.40;;;5.23;;
41966;SDS011;27656;53.068;8.818;2022-12-07T05:07:50;9.20;;;4.63;;
41966;SDS011;27656;53.068;8.818;2022-12-07T05:10:17;12.97;;;5.27;;
41966;SDS011;27656;53.068;8.818;2022-12-07T05:12:43;12.87;;;4.73;;
41966;SDS011;27656;53.068;8.818;2022-12-07T05:15:10;12.33;;;4.57;;
41966;SDS011;27656;53.068;8.818;2022-12-07T05:17:36;10.27;;;4.30;;
41966;SDS011;27656;53.068;8.818;2022-12-07T05:20:03;9.20;;;3.87;;
41966;SDS011;27656;53.068;8.818;2022-12-07T05:22:30;12.17;;;4.03;;
41966;SDS011;27656;53.068;8.818;2022-12-07T05:24:57;10.93;;;3.77;;
41966;SDS011;27656;53.068;8.818;2022-12-07T05:27:23;9.43;;;3.23;;
41966;SDS011;27656;53.068;8.818;2022-12-07T05:29:50;12.87;;;3.23;;
41966;SDS011;27656;53.068;8.818;2022-12-07T05:32:17;7.33;;;2.87;;
41966;SDS011;27656;53.068;8.818;2022-12-07T05:34:43;7.73;;;3.27;;
41966;SDS011;27656;53.068;8.818;2022-12-07T05:37:10;6.13;;;2.97;;
41966;SDS011;27656;53.068;8.818;2022-12-07T05:39:36;8.90;;;2.73;;
41966;SDS011;27656;53.068;8.818;2022-12-07T05:42:07;6.57;;;2.80;;
41966;SDS011;27656;53.068;8.818;2022-12-07T05:44:38;8.20;;;2.40;;
41966;SDS011;27656;53.068;8.818;2022-12-07T05:47:09;9.27;;;2.60;;
41966;SDS011;27656;53.068;8.818;2022-12-07T05:49:36;11.73;;;2.50;;
41966;SDS011;27656;53.068;8.818;2022-12-07T05:52:02;5.90;;;1.97;;
41966;SDS011;27656;53.068;8.818;2022-12-07T05:54:29;4.60;;;2.20;;
41966;SDS011;27656;53.068;8.818;2022-12-07T05:56:56;7.93;;;2.00;;
41966;SDS011;27656;53.068;8.818;2022-12-07T05:59:23;8.50;;;2.83;;
41966;SDS011;27656;53.068;8.818;2022-12-07T06:01:51;6.20;;;1.87;;
41966;SDS011;27656;53.068;8.818;2022-12-07T06:04:19;5.13;;;2.30;;
41966;SDS011;27656;53.068;8.818;2022-12-07T06:06:46;6.43;;;2.30;;
41966;SDS011;27656;53.068;8.818;2022-12-07T06:09:12;7.57;;;2.03;;
41966;SDS011;27656;53.068;8.818;2022-12-07T06:11:39;6.37;;;3.00;;
41966;SDS011;27656;53.068;8.818;2022-12-07T06:14:25;6.77;;;2.30;;
41966;SDS011;27656;53.068;8.818;2022-12-07T06:16:51;5.03;;;1.57;;
41966;SDS011;27656;53.068;8.818;2022-12-07T06:19:18;4.93;;;1.80;;
41966;SDS011;27656;53.068;8.818;2022-12-07T06:21:44;4.83;;;1.83;;
41966;SDS011;27656;53.068;8.818;2022-12-07T06:24:11;6.30;;;1.67;;
41966;SDS011;27656;53.068;8.818;2022-12-07T06:26:38;9.00;;;2.13;;
41966;SDS011;27656;53.068;8.818;2022-12-07T06:29:05;8.20;;;1.73;;
41966;SDS011;27656;53.068;8.818;2022-12-07T06:31:32;7.73;;;2.00;;
41966;SDS011;27656;53.068;8.818;2022-12-07T06:33:59;6.47;;;1.53;;
41966;SDS011;27656;53.068;8.818;2022-12-07T06:36:27;9.50;;;2.07;;
41966;SDS011;27656;53.068;8.818;2022-12-07T06:38:53;8.43;;;2.10;;
41966;SDS011;27656;53.068;8.818;2022-12-07T06:41:20;4.67;;;1.90;;
41966;SDS011;27656;53.068;8.818;2022-12-07T06:43:47;5.27;;;1.60;;
41966;SDS011;27656;53.068;8.818;2022-12-07T06:46:21;4.37;;;1.80;;
41966;SDS011;27656;53.068;8.818;2022-12-07T06:48:47;5.73;;;2.33;;
41966;SDS011;27656;53.068;8.818;2022-12-07T06:51:14;4.40;;;1.50;;
41966;SDS011;27656;53.068;8.818;2022-12-07T06:53:41;10.13;;;2.73;;
41966;SDS011;27656;53.068;8.818;2022-12-07T06:56:07;8.10;;;2.03;;
41966;SDS011;27656;53.068;8.818;2022-12-07T06:58:34;8.37;;;1.97;;
41966;SDS011;27656;53.068;8.818;2022-12-07T07:01:00;4.23;;;1.90;;
41966;SDS011;27656;53.068;8.818;2022-12-07T07:03:27;10.37;;;1.97;;
41966;SDS011;27656;53.068;8.818;2022-12-07T07:05:53;6.87;;;2.17;;
41966;SDS011;27656;53.068;8.818;2022-12-07T07:08:20;6.80;;;1.73;;
41966;SDS011;27656;53.068;8.818;2022-12-07T07:10:48;8.40;;;1.90;;
41966;SDS011;27656;53.068;8.818;2022-12-07T07:13:14;13.47;;;2.00;;
41966;SDS011;27656;53.068;8.818;2022-12-07T07:15:41;8.57;;;1.87;;
41966;SDS011;27656;53.068;8.818;2022-12-07T07:18:08;7.43;;;1.60;;
41966;SDS011;27656;53.068;8.818;2022-12-07T07:20:34;5.43;;;1.63;;
41966;SDS011;27656;53.068;8.818;2022-12-07T07:23:01;3.80;;;1.40;;
41966;SDS011;27656;53.068;8.818;2022-12-07T07:25:27;8.43;;;1.70;;
41966;SDS011;27656;53.068;8.818;2022-12-07T07:27:54;8.00;;;1.40;;
41966;SDS011;27656;53.068;8.818;2022-12-07T07:30:20;4.87;;;1.57;;
41966;SDS011;27656;53.068;8.818;2022-12-07T07:32:47;11.93;;;1.73;;
41966;SDS011;27656;53.068;8.818;2022-12-07T07:35:15;12.30;;;1.77;;
41966;SDS011;27656;53.068;8.818;2022-12-07T07:37:41;5.87;;;1.50;;
41966;SDS011;27656;53.068;8.818;2022-12-07T07:40:08;6.70;;;1.70;;
41966;SDS011;27656;53.068;8.818;2022-12-07T07:42:35;7.07;;;1.30;;
41966;SDS011;27656;53.068;8.818;2022-12-07T07:45:02;4.73;;;1.50;;
41966;SDS011;27656;53.068;8.818;2022-12-07T07:47:29;8.70;;;1.43;;
41966;SDS011;27656;53.068;8.818;2022-12-07T07:49:55;8.37;;;1.40;;
41966;SDS011;27656;53.068;8.818;2022-12-07T07:52:22;4.83;;;1.10;;
41966;SDS011;27656;53.068;8.818;2022-12-07T07:54:49;7.80;;;1.40;;
41966;SDS011;27656;53.068;8.818;2022-12-07T07:57:21;5.67;;;1.57;;
41966;SDS011;27656;53.068;8.818;2022-12-07T07:59:48;5.17;;;1.50;;
41966;SDS011;27656;53.068;8.818;2022-12-07T08:02:15;5.37;;;1.50;;
41966;SDS011;27656;53.068;8.818;2022-12-07T08:04:43;5.73;;;1.63;;
41966;SDS011;27656;53.068;8.818;2022-12-07T08:07:10;7.77;;;1.67;;
41966;SDS011;27656;53.068;8.818;2022-12-07T08:09:37;6.67;;;1.63;;
41966;SDS011;27656;53.068;8.818;2022-12-07T08:12:03;6.23;;;2.07;;
41966;SDS011;27656;53.068;8.818;2022-12-07T08:14:30;3.33;;;1.40;;
41966;SDS011;27656;53.068;8.818;2022-12-07T08:16:57;6.63;;;1.50;;
41966;SDS011;27656;53.068;8.818;2022-12-07T08:19:23;6.83;;;1.60;;
41966;SDS011;27656;53.068;8.818;2022-12-07T08:21:50;3.10;;;1.40;;
41966;SDS011;27656;53.068;8.818;2022-12-07T08:24:17;7.00;;;1.60;;
41966;SDS011;27656;53.068;8.818;2022-12-07T08:26:43;4.57;;;1.50;;
41966;SDS011;27656;53.068;8.818;2022-12-07T08:29:10;6.87;;;1.77;;
41966;SDS011;27656;53.068;8.818;2022-12-07T08:31:36;5.03;;;1.43;;
41966;SDS011;27656;53.068;8.818;2022-12-07T08:34:03;3.60;;;1.20;;
41966;SDS011;27656;53.068;8.818;2022-12-07T08:36:30;2.73;;;1.20;;
41966;SDS011;27656;53.068;8.818;2022-12-07T08:38:56;2.73;;;1.30;;
41966;SDS011;27656;53.068;8.818;2022-12-07T08:41:43;11.07;;;1.80;;
41966;SDS011;27656;53.068;8.818;2022-12-07T08:44:09;3.80;;;1.57;;
41966;SDS011;27656;53.068;8.818;2022-12-07T08:46:40;5.77;;;1.57;;
41966;SDS011;27656;53.068;8.818;2022-12-07T08:49:13;3.60;;;1.80;;
41966;SDS011;27656;53.068;8.818;2022-12-07T08:51:42;6.37;;;1.70;;
41966;SDS011;27656;53.068;8.818;2022-12-07T08:54:10;6.47;;;1.60;;
41966;SDS011;27656;53.068;8.818;2022-12-07T08:56:39;5.80;;;1.90;;
41966;SDS011;27656;53.068;8.818;2022-12-07T08:59:05;5.00;;;1.60;;
41966;SDS011;27656;53.068;8.818;2022-12-07T09:01:32;4.73;;;2.00;;
41966;SDS011;27656;53.068;8.818;2022-12-07T09:03:59;3.10;;;1.10;;
41966;SDS011;27656;53.068;8.818;2022-12-07T09:06:25;5.50;;;1.10;;
41966;SDS011;27656;53.068;8.818;2022-12-07T09:08:53;4.70;;;1.17;;
41966;SDS011;27656;53.068;8.818;2022-12-07T09:11:22;4.77;;;1.13;;
41966;SDS011;27656;53.068;8.818;2022-12-07T09:13:54;3.37;;;0.90;;
41966;SDS011;27656;53.068;8.818;2022-12-07T09:16:20;5.43;;;1.17;;
41966;SDS011;27656;53.068;8.818;2022-12-07T09:18:47;6.37;;;1.47;;
41966;SDS011;27656;53.068;8.818;2022-12-07T09:21:13;3.33;;;1.20;;
41966;SDS011;27656;53.068;8.818;2022-12-07T09:23:41;2.23;;;1.03;;
41966;SDS011;27656;53.068;8.818;2022-12-07T09:26:08;5.57;;;1.40;;
41966;SDS011;27656;53.068;8.818;2022-12-07T09:28:36;4.60;;;1.30;;
41966;SDS011;27656;53.068;8.818;2022-12-07T09:31:03;6.20;;;2.13;;
41966;SDS011;27656;53.068;8.818;2022-12-07T09:33:57;8.00;;;1.47;;
41966;SDS011;27656;53.068;8.818;2022-12-07T09:36:25;5.37;;;1.60;;
41966;SDS011;27656;53.068;8.818;2022-12-07T09:38:53;4.87;;;1.70;;
41966;SDS011;27656;53.068;8.818;2022-12-07T09:41:19;5.67;;;1.60;;
41966;SDS011;27656;53.068;8.818;2022-12-07T09:43:48;4.20;;;1.77;;
41966;SDS011;27656;53.068;8.818;2022-12-07T09:46:15;3.37;;;1.53;;
41966;SDS011;27656;53.068;8.818;2022-12-07T09:48:45;4.07;;;1.80;;
41966;SDS011;27656;53.068;8.818;2022-12-07T09:53:50;6.60;;;1.90;;
41966;SDS011;27656;53.068;8.818;2022-12-07T09:56:18;3.33;;;1.53;;
41966;SDS011;27656;53.068;8.818;2022-12-07T09:58:45;3.17;;;1.50;;
41966;SDS011;27656;53.068;8.818;2022-12-07T10:01:16;6.03;;;1.73;;
41966;SDS011;27656;53.068;8.818;2022-12-07T10:03:47;7.53;;;1.70;;
41966;SDS011;27656;53.068;8.818;2022-12-07T10:06:16;6.50;;;1.93;;
41966;SDS011;27656;53.068;8.818;2022-12-07T10:08:43;5.27;;;2.13;;
41966;SDS011;27656;53.068;8.818;2022-12-07T10:11:12;2.90;;;1.70;;
41966;SDS011;27656;53.068;8.818;2022-12-07T10:13:41;7.10;;;2.00;;
41966;SDS011;27656;53.068;8.818;2022-12-07T10:18:50;8.83;;;1.83;;
41966;SDS011;27656;53.068;8.818;2022-12-07T10:21:17;3.23;;;1.87;;
41966;SDS011;27656;53.068;8.818;2022-12-07T10:29:17;5.37;;;2.00;;
41966;SDS011;27656;53.068;8.818;2022-12-07T10:31:49;5.03;;;1.70;;
41966;SDS011;27656;53.068;8.818;2022-12-07T10:34:26;6.07;;;1.73;;
41966;SDS011;27656;53.068;8.818;2022-12-07T10:37:07;8.73;;;2.03;;
41966;SDS011;27656;53.068;8.818;2022-12-07T10:39:55;4.33;;;2.03;;
41966;SDS011;27656;53.068;8.818;2022-12-07T10:42:23;4.80;;;1.73;;
41966;SDS011;27656;53.068;8.818;2022-12-07T10:47:47;3.17;;;1.30;;
41966;SDS011;27656;53.068;8.818;2022-12-07T10:56:05;4.20;;;1.50;;
41966;SDS011;27656;53.068;8.818;2022-12-07T10:59:00;5.03;;;1.50;;
41966;SDS011;27656;53.068;8.818;2022-12-07T11:01:48;8.87;;;1.63;;
41966;SDS011;27656;53.068;8.818;2022-12-07T11:09:34;5.13;;;1.90;;
41966;SDS011;27656;53.068;8.818;2022-12-07T11:20:16;7.13;;;1.50;;
41966;SDS011;27656;53.068;8.818;2022-12-07T11:28:50;3.53;;;1.30;;
41966;SDS011;27656;53.068;8.818;2022-12-07T11:31:38;2.57;;;1.50;;
41966;SDS011;27656;53.068;8.818;2022-12-07T11:34:15;7.60;;;1.87;;
41966;SDS011;27656;53.068;8.818;2022-12-07T11:36:52;6.57;;;1.70;;
41966;SDS011;27656;53.068;8.818;2022-12-07T11:41:48;5.60;;;1.40;;
41966;SDS011;27656;53.068;8.818;2022-12-07T11:47:05;5.13;;;1.23;;
41966;SDS011;27656;53.068;8.818;2022-12-07T11:49:40;9.17;;;1.80;;
41966;SDS011;27656;53.068;8.818;2022-12-07T11:52:17;8.97;;;1.97;;
41966;SDS011;27656;53.068;8.818;2022-12-07T11:54:47;10.47;;;2.00;;
41966;SDS011;27656;53.068;8.818;2022-12-07T11:57:20;4.13;;;1.70;;
41966;SDS011;27656;53.068;8.818;2022-12-07T12:00:01;11.93;;;1.70;;
41966;SDS011;27656;53.068;8.818;2022-12-07T12:02:35;5.77;;;1.60;;
41966;SDS011;27656;53.068;8.818;2022-12-07T12:05:21;5.40;;;1.60;;
41966;SDS011;27656;53.068;8.818;2022-12-07T12:07:52;6.00;;;1.60;;
41966;SDS011;27656;53.068;8.818;2022-12-07T12:11:08;7.00;;;1.83;;
41966;SDS011;27656;53.068;8.818;2022-12-07T12:17:03;7.33;;;1.70;;
41966;SDS011;27656;53.068;8.818;2022-12-07T12:22:14;3.67;;;1.40;;
41966;SDS011;27656;53.068;8.818;2022-12-07T12:24:43;6.60;;;2.00;;
41966;SDS011;27656;53.068;8.818;2022-12-07T12:29:56;5.33;;;1.60;;
41966;SDS011;27656;53.068;8.818;2022-12-07T12:32:39;6.10;;;1.73;;
41966;SDS011;27656;53.068;8.818;2022-12-07T12:37:52;6.43;;;1.60;;
41966;SDS011;27656;53.068;8.818;2022-12-07T12:45:19;7.50;;;1.60;;
41966;SDS011;27656;53.068;8.818;2022-12-07T12:48:03;6.77;;;2.07;;
41966;SDS011;27656;53.068;8.818;2022-12-07T12:50:31;8.33;;;2.00;;
41966;SDS011;27656;53.068;8.818;2022-12-07T12:55:30;9.80;;;2.10;;
41966;SDS011;27656;53.068;8.818;2022-12-07T13:00:46;8.17;;;1.47;;
41966;SDS011;27656;53.068;8.818;2022-12-07T13:03:29;5.13;;;1.87;;
41966;SDS011;27656;53.068;8.818;2022-12-07T13:08:58;6.00;;;1.83;;
41966;SDS011;27656;53.068;8.818;2022-12-07T13:11:29;4.73;;;1.50;;
41966;SDS011;27656;53.068;8.818;2022-12-07T13:17:01;6.00;;;2.03;;
41966;SDS011;27656;53.068;8.818;2022-12-07T13:27:37;7.57;;;1.97;;
41966;SDS011;27656;53.068;8.818;2022-12-07T13:30:09;8.17;;;2.27;;
41966;SDS011;27656;53.068;8.818;2022-12-07T13:32:41;7.73;;;2.13;;
41966;SDS011;27656;53.068;8.818;2022-12-07T13:35:28;6.20;;;2.17;;
41966;SDS011;27656;53.068;8.818;2022-12-07T13:37:55;11.93;;;2.33;;
41966;SDS011;27656;53.068;8.818;2022-12-07T13:40:22;4.87;;;2.23;;
41966;SDS011;27656;53.068;8.818;2022-12-07T13:42:56;5.47;;;2.50;;
41966;SDS011;27656;53.068;8.818;2022-12-07T13:45:29;10.80;;;2.67;;
41966;SDS011;27656;53.068;8.818;2022-12-07T13:48:24;12.77;;;3.00;;
41966;SDS011;27656;53.068;8.818;2022-12-07T13:50:54;12.97;;;2.90;;
41966;SDS011;27656;53.068;8.818;2022-12-07T13:53:22;8.97;;;2.50;;
41966;SDS011;27656;53.068;8.818;2022-12-07T13:55:49;8.23;;;2.77;;
41966;SDS011;27656;53.068;8.818;2022-12-07T13:58:20;8.50;;;2.70;;
41966;SDS011;27656;53.068;8.818;2022-12-07T14:00:46;9.90;;;2.13;;
41966;SDS011;27656;53.068;8.818;2022-12-07T14:05:40;6.60;;;2.20;;
41966;SDS011;27656;53.068;8.818;2022-12-07T14:10:41;8.83;;;1.50;;
41966;SDS011;27656;53.068;8.818;2022-12-07T14:15:55;4.40;;;1.63;;
41966;SDS011;27656;53.068;8.818;2022-12-07T14:18:40;3.53;;;1.43;;
41966;SDS011;27656;53.068;8.818;2022-12-07T14:23:37;7.17;;;1.30;;
41966;SDS011;27656;53.068;8.818;2022-12-07T14:26:22;6.40;;;1.87;;
41966;SDS011;27656;53.068;8.818;2022-12-07T14:28:49;8.47;;;1.30;;
41966;SDS011;27656;53.068;8.818;2022-12-07T14:31:16;5.10;;;1.93;;
41966;SDS011;27656;53.068;8.818;2022-12-07T14:33:58;3.37;;;1.77;;
41966;SDS011;27656;53.068;8.818;2022-12-07T14:36:25;6.47;;;1.77;;
41966;SDS011;27656;53.068;8.818;2022-12-07T14:38:52;7.20;;;1.40;;
41966;SDS011;27656;53.068;8.818;2022-12-07T14:41:20;3.40;;;1.50;;
41966;SDS011;27656;53.068;8.818;2022-12-07T14:44:12;4.93;;;1.20;;
41966;SDS011;27656;53.068;8.818;2022-12-07T14:46:51;4.30;;;1.43;;
41966;SDS011;27656;53.068;8.818;2022-12-07T14:49:37;5.90;;;1.50;;
41966;SDS011;27656;53.068;8.818;2022-12-07T14:52:04;3.00;;;1.13;;
41966;SDS011;27656;53.068;8.818;2022-12-07T14:54:52;4.23;;;1.30;;
41966;SDS011;27656;53.068;8.818;2022-12-07T14:57:18;8.83;;;1.77;;
41966;SDS011;27656;53.068;8.818;2022-12-07T14:59:45;5.37;;;1.40;;
41966;SDS011;27656;53.068;8.818;2022-12-07T15:02:12;7.30;;;1.37;;
41966;SDS011;27656;53.068;8.818;2022-12-07T15:04:39;5.90;;;1.30;;
41966;SDS011;27656;53.068;8.818;2022-12-07T15:07:09;6.20;;;1.50;;
41966;SDS011;27656;53.068;8.818;2022-12-07T15:09:39;1.90;;;1.17;;
41966;SDS011;27656;53.068;8.818;2022-12-07T15:12:05;6.27;;;1.43;;
41966;SDS011;27656;53.068;8.818;2022-12-07T15:14:33;3.97;;;1.40;;
41966;SDS011;27656;53.068;8.818;2022-12-07T15:17:00;6.23;;;1.30;;
41966;SDS011;27656;53.068;8.818;2022-12-07T15:19:39;14.90;;;6.23;;
41966;SDS011;27656;53.068;8.818;2022-12-07T15:22:07;4.63;;;1.80;;
41966;SDS011;27656;53.068;8.818;2022-12-07T15:24:34;8.70;;;2.20;;
41966;SDS011;27656;53.068;8.818;2022-12-07T15:27:00;3.20;;;1.50;;
41966;SDS011;27656;53.068;8.818;2022-12-07T15:29:27;4.20;;;1.60;;
41966;SDS011;27656;53.068;8.818;2022-12-07T15:31:53;7.87;;;1.73;;
41966;SDS011;27656;53.068;8.818;2022-12-07T15:34:24;5.37;;;1.60;;
41966;SDS011;27656;53.068;8.818;2022-12-07T15:36:51;4.77;;;1.60;;
41966;SDS011;27656;53.068;8.818;2022-12-07T15:39:18;2.93;;;1.60;;
41966;SDS011;27656;53.068;8.818;2022-12-07T15:41:44;5.37;;;1.57;;
41966;SDS011;27656;53.068;8.818;2022-12-07T15:44:14;7.97;;;2.20;;
41966;SDS011;27656;53.068;8.818;2022-12-07T15:46:59;8.80;;;2.43;;
41966;SDS011;27656;53.068;8.818;2022-12-07T15:49:26;8.17;;;2.20;;
41966;SDS011;27656;53.068;8.818;2022-12-07T15:51:53;6.93;;;1.77;;
41966;SDS011;27656;53.068;8.818;2022-12-07T15:54:21;7.77;;;1.83;;
41966;SDS011;27656;53.068;8.818;2022-12-07T15:56:49;4.47;;;2.00;;
41966;SDS011;27656;53.068;8.818;2022-12-07T15:59:16;4.90;;;2.20;;
41966;SDS011;27656;53.068;8.818;2022-12-07T16:01:43;3.53;;;1.87;;
41966;SDS011;27656;53.068;8.818;2022-12-07T16:04:10;4.30;;;1.67;;
41966;SDS011;27656;53.068;8.818;2022-12-07T16:06:37;6.27;;;1.80;;
41966;SDS011;27656;53.068;8.818;2022-12-07T16:09:04;4.33;;;1.53;;
41966;SDS011;27656;53.068;8.818;2022-12-07T16:11:31;4.57;;;1.43;;
41966;SDS011;27656;53.068;8.818;2022-12-07T16:13:58;3.53;;;1.60;;
41966;SDS011;27656;53.068;8.818;2022-12-07T16:16:24;4.73;;;1.60;;
41966;SDS011;27656;53.068;8.818;2022-12-07T16:18:52;4.07;;;1.70;;
41966;SDS011;27656;53.068;8.818;2022-12-07T16:21:18;7.87;;;1.67;;
41966;SDS011;27656;53.068;8.818;2022-12-07T16:23:50;4.57;;;1.47;;
41966;SDS011;27656;53.068;8.818;2022-12-07T16:26:17;7.20;;;1.60;;
41966;SDS011;27656;53.068;8.818;2022-12-07T16:28:47;4.77;;;2.00;;
41966;SDS011;27656;53.068;8.818;2022-12-07T16:31:15;5.37;;;1.93;;
41966;SDS011;27656;53.068;8.818;2022-12-07T16:33:43;7.90;;;2.17;;
41966;SDS011;27656;53.068;8.818;2022-12-07T16:36:10;4.00;;;2.13;;
41966;SDS011;27656;53.068;8.818;2022-12-07T16:38:37;9.93;;;2.27;;
41966;SDS011;27656;53.068;8.818;2022-12-07T16:41:07;8.57;;;2.40;;
41966;SDS011;27656;53.068;8.818;2022-12-07T16:43:34;4.90;;;2.10;;
41966;SDS011;27656;53.068;8.818;2022-12-07T16:46:01;7.17;;;2.90;;
41966;SDS011;27656;53.068;8.818;2022-12-07T16:48:28;6.57;;;2.40;;
41966;SDS011;27656;53.068;8.818;2022-12-07T16:50:55;6.63;;;2.30;;
41966;SDS011;27656;53.068;8.818;2022-12-07T16:53:22;8.70;;;2.70;;
41966;SDS011;27656;53.068;8.818;2022-12-07T16:55:50;9.60;;;3.47;;
41966;SDS011;27656;53.068;8.818;2022-12-07T16:58:17;9.07;;;3.33;;
41966;SDS011;27656;53.068;8.818;2022-12-07T17:00:44;7.00;;;3.27;;
41966;SDS011;27656;53.068;8.818;2022-12-07T17:03:11;7.80;;;2.93;;
41966;SDS011;27656;53.068;8.818;2022-12-07T17:05:45;5.37;;;2.27;;
41966;SDS011;27656;53.068;8.818;2022-12-07T17:08:13;5.73;;;2.10;;